Terminal Aerodrome Forecast
Issued by NWS Sioux Falls, SD

Home | Current Version | Previous Version | Text Only | Print | Product List | Glossary On
Versions: 1 2 3 4 5 6 7 8 9 10 11 12 13 14 15 16 17 18 19 20 21 22 23 24 25 26 27 28 29 30 31 32 33 34 35 36 37
000
FTUS43 KFSD 121131
TAFSUX
TAF
KSUX 121131Z 1212/1312 34010KT P6SM BKN060
      TEMPO 1212/1214 BKN020
     FM121600 34012G17KT P6SM SCT140
     FM130100 01008KT P6SM SCT250
     FM130500 03004KT P6SM SCT250
     FM130700 05004KT P6SM BKN150=

USA.gov is the U.S. government's official web portal to all federal, state and local government web resources and services.